Time;durP1;ratioP1;P1;durP2;ratioP2;P2;SDS_P1;SDS_P2;PMS_P1;PMS_P2;Temp;Humidity;BMP_temperature;BMP_pressure;BME280_temperature;BME280_humidity;BME280_pressure;Samples;Min_cycle;Max_cycle;Signal;HPM_P1;HPM_P2
2024/01/14 00:01:34;;;;;;;;;;;;;;;-0.10;60.98;100170.59;5403163;32;34287;-70
2024/01/14 00:04:37;;;;;;;;;;;;;;;0.60;60.18;100174.84;5407112;32;35393;-68
2024/01/14 00:07:39;;;;;;;;;;;;;;;0.99;57.92;100166.97;5404168;32;35503;-69
2024/01/14 00:10:42;;;;;;;;;;;;;;;0.52;58.76;100175.75;5397177;32;34254;-70
2024/01/14 00:13:44;;;;;;;;;;;;;;;0.29;59.96;100184.38;5385995;32;34179;-70
2024/01/14 00:16:46;;;;;;;;;;;;;;;0.57;60.08;100175.72;5393770;32;34308;-68
2024/01/14 00:19:48;;;;;;;;;;;;;;;0.63;59.81;100164.50;5375262;32;34383;-69
2024/01/14 00:22:51;;;;;;;;;;;;;;;1.19;56.75;100155.69;5387014;32;34423;-69
2024/01/14 00:25:53;;;;;;;;;;;;;;;1.25;57.24;100156.50;5405910;32;34280;-70
2024/01/14 00:28:55;;;;;;;;;;;;;;;0.86;58.59;100149.78;5404249;32;34269;-69
2024/01/14 00:31:58;;;;;;;;;;;;;;;0.67;58.99;100154.12;5394219;32;35186;-70
2024/01/14 00:35:00;;;;;;;;;;;;;;;1.28;56.96;100145.25;5402422;32;34265;-69
2024/01/14 00:38:03;;;;;;;;;;;;;;;0.33;59.40;100157.66;5404044;32;34279;-69
2024/01/14 00:41:05;;;;;;;;;;;;;;;0.67;58.77;100155.87;5404171;32;34531;-70
2024/01/14 00:44:07;;;;;;;;;;;;;;;1.53;55.80;100141.66;5401755;32;35008;-68
2024/01/14 00:47:09;;;;;;;;;;;;;;;0.63;58.39;100157.59;5393972;32;34417;-68
2024/01/14 00:50:12;;;;;;;;;;;;;;;0.12;60.03;100153.34;5403163;32;34199;-69
2024/01/14 00:53:14;;;;;;;;;;;;;;;0.80;58.79;100136.84;5410457;32;34261;-70
2024/01/14 00:56:16;;;;;;;;;;;;;;;0.70;58.75;100150.69;5390901;32;34850;-69
2024/01/14 00:59:18;;;;;;;;;;;;;;;0.74;57.35;100148.09;5408089;32;34944;-68
2024/01/14 01:02:20;;;;;;;;;;;;;;;1.60;55.71;100132.13;5406644;32;34390;-69
2024/01/14 01:05:22;;;;;;;;;;;;;;;0.82;57.20;100117.00;5404136;32;34291;-69
2024/01/14 01:08:25;;;;;;;;;;;;;;;1.47;56.10;100115.81;5410695;32;35533;-69
2024/01/14 01:11:27;;;;;;;;;;;;;;;1.35;56.22;100110.69;5405712;32;35539;-70
2024/01/14 01:14:29;;;;;;;;;;;;;;;1.03;56.03;100109.16;5395319;32;35720;-69
2024/01/14 01:17:31;;;;;;;;;;;;;;;1.10;56.38;100093.63;5406582;32;34391;-69
2024/01/14 01:20:34;;;;;;;;;;;;;;;1.51;55.17;100086.44;5406876;32;34124;-71
2024/01/14 01:23:36;;;;;;;;;;;;;;;1.11;56.65;100111.72;5404835;32;34735;-68
2024/01/14 01:26:38;;;;;;;;;;;;;;;1.71;55.00;100090.59;5390332;32;35410;-68
2024/01/14 01:29:40;;;;;;;;;;;;;;;1.22;56.62;100091.78;5410173;32;34290;-68
2024/01/14 01:32:42;;;;;;;;;;;;;;;2.15;53.33;100079.84;5405784;32;34273;-69
2024/01/14 01:35:44;;;;;;;;;;;;;;;1.02;56.53;100071.19;5409193;32;34190;-71
2024/01/14 01:38:47;;;;;;;;;;;;;;;1.02;56.68;100080.69;5401373;32;35630;-69
2024/01/14 01:41:50;;;;;;;;;;;;;;;1.28;54.81;100073.63;5407875;32;34359;-69
2024/01/14 01:44:52;;;;;;;;;;;;;;;0.86;55.39;100074.75;5404342;32;34326;-69
2024/01/14 01:47:55;;;;;;;;;;;;;;;1.48;54.57;100057.97;5406388;32;34730;-69
2024/01/14 01:50:57;;;;;;;;;;;;;;;0.98;55.71;100048.81;5396352;32;35154;-70
2024/01/14 01:53:59;;;;;;;;;;;;;;;0.99;55.35;100050.53;5405402;32;34733;-68
2024/01/14 01:57:01;;;;;;;;;;;;;;;0.32;56.30;100052.50;5409503;32;35510;-70
2024/01/14 02:00:04;;;;;;;;;;;;;;;0.45;57.04;100054.19;5404330;32;34809;-70
2024/01/14 02:03:08;;;;;;;;;;;;;;;0.81;55.91;100045.44;5405484;32;35462;-70
2024/01/14 02:06:11;;;;;;;;;;;;;;;0.19;56.85;100057.75;5396841;32;34320;-69
2024/01/14 02:09:13;;;;;;;;;;;;;;;0.38;57.11;100055.94;5385365;32;34385;-67
2024/01/14 02:12:15;;;;;;;;;;;;;;;-0.34;58.56;100042.28;5410423;32;34440;-71
2024/01/14 02:15:18;;;;;;;;;;;;;;;-0.35;59.39;100036.28;5399497;32;34246;-68
2024/01/14 02:18:20;;;;;;;;;;;;;;;-0.21;59.03;100043.16;5399083;32;34727;-69
2024/01/14 02:21:23;;;;;;;;;;;;;;;0.39;57.58;100042.19;5403060;32;34470;-69
2024/01/14 02:24:26;;;;;;;;;;;;;;;0.16;57.75;100039.63;5388570;32;34212;-71
2024/01/14 02:27:28;;;;;;;;;;;;;;;0.79;56.26;100026.47;5409601;32;34203;-69
2024/01/14 02:30:32;;;;;;;;;;;;;;;0.73;56.48;100026.50;5390842;32;34284;-68
2024/01/14 02:33:34;;;;;;;;;;;;;;;0.20;57.87;100022.41;5383678;32;34534;-68
2024/01/14 02:36:36;;;;;;;;;;;;;;;-0.08;57.97;100019.00;5405237;32;34279;-70
2024/01/14 02:39:38;;;;;;;;;;;;;;;0.01;57.81;100044.00;5409457;32;36258;-70
2024/01/14 02:42:41;;;;;;;;;;;;;;;0.14;57.73;100023.28;5404644;32;34465;-71
2024/01/14 02:45:43;;;;;;;;;;;;;;;0.42;57.08;100018.88;5400268;32;35781;-69
2024/01/14 02:48:45;;;;;;;;;;;;;;;-0.47;59.20;100020.78;5410001;32;34704;-70
2024/01/14 02:51:47;;;;;;;;;;;;;;;-0.27;59.69;100021.62;5405415;32;34385;-71
2024/01/14 02:54:49;;;;;;;;;;;;;;;0.21;58.10;100012.06;5394881;32;35343;-69
2024/01/14 02:57:52;;;;;;;;;;;;;;;0.04;58.27;100007.81;5402556;32;34154;-69
2024/01/14 03:00:54;;;;;;;;;;;;;;;-0.14;59.24;100011.28;5406627;32;35016;-69
2024/01/14 03:03:57;;;;;;;;;;;;;;;-0.32;59.46;100012.19;5389389;32;34800;-68
2024/01/14 03:06:59;;;;;;;;;;;;;;;-0.01;58.71;99994.88;5404747;32;35550;-69
2024/01/14 03:10:01;;;;;;;;;;;;;;;0.22;58.68;99995.69;5409021;32;34374;-67
2024/01/14 03:13:04;;;;;;;;;;;;;;;-0.62;60.70;100002.72;5405171;32;34898;-70
2024/01/14 03:16:06;;;;;;;;;;;;;;;-0.12;59.51;99982.00;5394280;32;35473;-69
2024/01/14 03:19:08;;;;;;;;;;;;;;;0.36;58.68;99980.13;5404839;32;35194;-70
2024/01/14 03:22:11;;;;;;;;;;;;;;;0.03;59.27;99990.59;5392412;32;34152;-69
2024/01/14 03:25:13;;;;;;;;;;;;;;;0.34;58.79;99981.88;5388333;32;34777;-68
2024/01/14 03:28:15;;;;;;;;;;;;;;;-0.01;59.49;99972.50;5405061;32;34412;-69
2024/01/14 03:31:17;;;;;;;;;;;;;;;-0.49;60.83;99988.09;5408559;32;34798;-68
2024/01/14 03:34:19;;;;;;;;;;;;;;;-0.58;61.44;99979.50;5404857;32;35517;-69
2024/01/14 03:37:21;;;;;;;;;;;;;;;-0.07;59.80;99961.31;5409408;32;34308;-70
2024/01/14 03:40:24;;;;;;;;;;;;;;;0.06;59.03;99975.06;5388241;32;34137;-69
2024/01/14 03:43:26;;;;;;;;;;;;;;;0.06;59.20;99972.47;5404731;32;35419;-69
2024/01/14 03:46:28;;;;;;;;;;;;;;;-0.18;59.92;99970.84;5392061;32;35421;-69
2024/01/14 03:49:30;;;;;;;;;;;;;;;-0.12;59.65;99971.69;5396499;32;34280;-69
2024/01/14 03:52:33;;;;;;;;;;;;;;;0.00;59.67;99975.97;5409594;32;34197;-69
2024/01/14 03:55:35;;;;;;;;;;;;;;;-0.18;60.06;99970.84;5403547;32;34131;-70
2024/01/14 04:02:43;;;;;;;;;;;;;;;-0.73;61.82;99963.13;5389983;32;34834;-69
2024/01/14 04:06:24;;;;;;;;;;;;;;;-0.25;60.82;99956.22;5399949;32;34752;-68
2024/01/14 04:09:40;;;;;;;;;;;;;;;-0.70;62.21;99958.84;5393745;32;35648;-69
2024/01/14 04:13:03;;;;;;;;;;;;;;;-0.82;62.86;99953.69;5389103;32;37447;-69
2024/01/14 04:16:17;;;;;;;;;;;;;;;-0.83;63.13;99957.13;5388843;32;36626;-70
2024/01/14 04:19:30;;;;;;;;;;;;;;;-0.59;62.15;99953.66;5393510;32;35471;-70
2024/01/14 04:22:44;;;;;;;;;;;;;;;-0.93;62.48;99940.78;5387312;32;34640;-69
2024/01/14 04:25:57;;;;;;;;;;;;;;;-0.47;61.75;99940.75;5392322;32;34242;-70
2024/01/14 04:29:07;;;;;;;;;;;;;;;-0.23;60.94;99942.44;5395598;32;35908;-68
2024/01/14 04:32:23;;;;;;;;;;;;;;;0.12;59.74;99933.69;5392852;32;33211;-69
2024/01/14 04:35:38;;;;;;;;;;;;;;;-0.17;60.62;99947.56;5397170;32;34721;-69
2024/01/14 04:39:04;;;;;;;;;;;;;;;-0.40;60.40;99933.84;5377223;32;34752;-69
2024/01/14 04:42:20;;;;;;;;;;;;;;;-0.46;60.92;99939.03;5393056;32;34944;-70
2024/01/14 04:45:34;;;;;;;;;;;;;;;0.23;59.89;99926.75;5392199;32;36975;-70
2024/01/14 04:48:54;;;;;;;;;;;;;;;0.23;59.35;99945.72;5393878;32;33352;-69
2024/01/14 04:52:11;;;;;;;;;;;;;;;-0.05;60.16;99937.22;5395182;32;35514;-68
2024/01/14 04:55:40;;;;;;;;;;;;;;;0.17;60.07;99922.47;5393711;32;33122;-68
2024/01/14 04:59:07;;;;;;;;;;;;;;;-0.19;60.51;99938.97;5392484;32;36217;-69
2024/01/14 05:02:09;;;;;;;;;;;;;;;-0.14;60.74;99937.22;5409081;32;37296;-69
2024/01/14 05:05:11;;;;;;;;;;;;;;;0.22;60.18;99935.38;5390456;32;34306;-70
2024/01/14 05:08:14;;;;;;;;;;;;;;;0.41;59.70;99937.00;5393438;32;35647;-67
2024/01/14 05:11:16;;;;;;;;;;;;;;;0.25;59.42;99935.34;5406705;32;34743;-68
2024/01/14 05:14:18;;;;;;;;;;;;;;;0.21;59.86;99941.44;5406067;32;34275;-69
2024/01/14 05:17:20;;;;;;;;;;;;;;;0.03;60.49;99952.69;5396786;32;34315;-68
2024/01/14 05:20:22;;;;;;;;;;;;;;;0.25;59.90;99943.09;5391024;32;34337;-69
2024/01/14 05:23:25;;;;;;;;;;;;;;;-0.09;60.23;99945.81;5393180;32;34841;-68
2024/01/14 05:26:27;;;;;;;;;;;;;;;-0.11;61.09;99944.97;5404746;32;34124;-69
2024/01/14 05:29:29;;;;;;;;;;;;;;;0.47;59.72;99925.78;5395828;32;34348;-68
2024/01/14 05:32:31;;;;;;;;;;;;;;;0.30;59.36;99925.84;5407045;32;34335;-68
2024/01/14 05:35:34;;;;;;;;;;;;;;;0.21;60.42;99949.19;5401220;32;34268;-69
2024/01/14 05:38:36;;;;;;;;;;;;;;;0.34;59.52;99945.66;5391217;32;34042;-68
2024/01/14 05:41:38;;;;;;;;;;;;;;;0.15;59.43;99926.78;5405967;32;34128;-70
2024/01/14 05:44:40;;;;;;;;;;;;;;;0.07;60.46;99931.16;5407344;32;34947;-68
2024/01/14 05:47:42;;;;;;;;;;;;;;;-0.13;61.55;99946.72;5406186;32;34843;-68
2024/01/14 05:50:44;;;;;;;;;;;;;;;-0.03;60.76;99939.78;5409385;32;34769;-69
2024/01/14 05:53:47;;;;;;;;;;;;;;;0.06;60.99;99928.53;5407487;32;36050;-69
2024/01/14 05:56:49;;;;;;;;;;;;;;;-0.08;61.69;99932.03;5390458;32;35697;-69
2024/01/14 05:59:51;;;;;;;;;;;;;;;0.41;59.70;99931.00;5409595;32;34255;-71
2024/01/14 06:02:53;;;;;;;;;;;;;;;0.41;59.59;99931.84;5404473;32;35659;-69
2024/01/14 06:05:55;;;;;;;;;;;;;;;0.13;60.22;99925.97;5408777;32;34536;-69
2024/01/14 06:08:58;;;;;;;;;;;;;;;0.86;58.60;99914.31;5405859;32;35416;-69
2024/01/14 06:12:00;;;;;;;;;;;;;;;0.51;60.02;99925.75;5394184;32;35640;-70
2024/01/14 06:15:02;;;;;;;;;;;;;;;0.57;59.63;99916.22;5407388;32;34321;-69
2024/01/14 06:18:05;;;;;;;;;;;;;;;-0.29;60.84;99932.97;5391845;32;34235;-69
2024/01/14 06:21:08;;;;;;;;;;;;;;;-0.27;61.62;99926.06;5408148;32;34668;-68
2024/01/14 06:24:12;;;;;;;;;;;;;;;0.63;59.68;99924.81;5402094;32;34274;-71
2024/01/14 06:27:14;;;;;;;;;;;;;;;0.49;59.65;99926.63;5409742;32;35764;-71
2024/01/14 06:30:16;;;;;;;;;;;;;;;0.01;60.31;99915.66;5405670;32;35927;-69
2024/01/14 06:33:19;;;;;;;;;;;;;;;0.53;59.78;99920.59;5407393;32;34198;-71
2024/01/14 06:36:22;;;;;;;;;;;;;;;1.08;57.78;99912.41;5407060;32;34447;-68
2024/01/14 06:39:24;;;;;;;;;;;;;;;0.06;60.10;99915.63;5389297;32;34947;-69
2024/01/14 06:42:27;;;;;;;;;;;;;;;0.08;60.31;99921.66;5395667;32;35401;-69
2024/01/14 06:45:29;;;;;;;;;;;;;;;-0.30;61.44;99925.22;5401470;32;35076;-69
2024/01/14 06:48:31;;;;;;;;;;;;;;;0.35;60.16;99929.28;5409022;32;35569;-70
2024/01/14 06:51:34;;;;;;;;;;;;;;;-0.11;61.82;99929.47;5404758;32;34146;-69
2024/01/14 06:54:39;;;;;;;;;;;;;;;0.32;60.43;99931.87;5391581;32;34623;-69
2024/01/14 06:57:42;;;;;;;;;;;;;;;0.45;60.74;99924.91;5407950;32;35460;-69
2024/01/14 07:00:44;;;;;;;;;;;;;;;0.06;61.37;99913.03;5404263;32;35880;-68
2024/01/14 07:03:46;;;;;;;;;;;;;;;-0.26;62.30;99926.91;5392895;32;34360;-69
2024/01/14 07:06:49;;;;;;;;;;;;;;;-0.20;62.29;99921.75;5390048;32;34193;-69
2024/01/14 07:09:51;;;;;;;;;;;;;;;-0.09;62.20;99925.16;5408939;32;34347;-69
2024/01/14 07:12:53;;;;;;;;;;;;;;;0.18;61.83;99924.19;5405210;32;34161;-68
2024/01/14 07:15:55;;;;;;;;;;;;;;;0.46;61.09;99927.50;5405315;32;34346;-70
2024/01/14 07:18:58;;;;;;;;;;;;;;;0.48;60.77;99930.09;5408912;32;35497;-70
2024/01/14 07:22:02;;;;;;;;;;;;;;;0.77;59.16;99927.31;5387529;32;34451;-69
2024/01/14 07:25:04;;;;;;;;;;;;;;;-0.29;62.68;99926.94;5404120;32;34479;-69
2024/01/14 07:28:07;;;;;;;;;;;;;;;0.79;60.40;99902.31;5398333;32;35495;-69
2024/01/14 07:31:10;;;;;;;;;;;;;;;0.87;58.82;99915.19;5408560;32;34165;-70
2024/01/14 07:34:12;;;;;;;;;;;;;;;1.04;59.09;99921.97;5404798;32;34334;-68
2024/01/14 07:37:15;;;;;;;;;;;;;;;0.36;61.22;99930.16;5404251;32;34669;-68
2024/01/14 07:40:17;;;;;;;;;;;;;;;1.37;58.39;99916.50;5404402;32;34462;-69
2024/01/14 07:43:19;;;;;;;;;;;;;;;1.48;57.57;99919.81;5404517;32;34272;-70
2024/01/14 07:46:21;;;;;;;;;;;;;;;1.55;57.31;99922.38;5378478;32;34446;-68
2024/01/14 07:49:23;;;;;;;;;;;;;;;0.94;58.67;99928.06;5403678;32;35129;-70
2024/01/14 07:52:27;;;;;;;;;;;;;;;1.13;58.61;99927.91;5408596;32;35362;-69
2024/01/14 07:55:29;;;;;;;;;;;;;;;0.35;60.68;99936.19;5389017;32;34422;-69
2024/01/14 07:58:31;;;;;;;;;;;;;;;1.03;59.81;99932.28;5403906;32;35493;-69
2024/01/14 08:01:35;;;;;;;;;;;;;;;1.08;58.15;99930.53;5408677;32;34835;-69
2024/01/14 08:04:37;;;;;;;;;;;;;;;1.12;59.05;99932.25;5405286;32;34910;-70
2024/01/14 08:07:39;;;;;;;;;;;;;;;0.78;59.35;99926.47;5410398;32;34340;-70
2024/01/14 08:10:42;;;;;;;;;;;;;;;0.78;59.22;99923.88;5406077;32;34352;-68
2024/01/14 08:13:45;;;;;;;;;;;;;;;0.79;59.49;99931.63;5410453;32;35761;-70
2024/01/14 08:16:47;;;;;;;;;;;;;;;0.49;60.13;99935.25;5406891;32;34206;-70
2024/01/14 08:19:49;;;;;;;;;;;;;;;0.46;60.37;99943.03;5406063;32;34343;-70
2024/01/14 08:22:54;;;;;;;;;;;;;;;1.15;59.32;99941.69;5408355;32;34401;-69
2024/01/14 08:25:57;;;;;;;;;;;;;;;1.26;58.22;99932.13;5403421;32;34861;-69
2024/01/14 08:28:59;;;;;;;;;;;;;;;2.51;54.50;99930.72;5383035;32;34610;-69
2024/01/14 08:32:14;;;;;;;;;;;;;;;1.70;55.82;99930.84;5393483;32;34372;-70
2024/01/14 08:35:17;;;;;;;;;;;;;;;2.87;54.43;99928.50;5407756;32;34200;-69
2024/01/14 08:38:20;;;;;;;;;;;;;;;3.32;52.06;99928.66;5390134;32;35705;-70
2024/01/14 08:41:24;;;;;;;;;;;;;;;2.09;54.95;99935.59;5392027;32;34379;-68
2024/01/14 08:44:27;;;;;;;;;;;;;;;2.47;55.15;99941.19;5389812;32;34832;-70
2024/01/14 08:47:31;;;;;;;;;;;;;;;2.26;55.56;99944.91;5405257;32;34258;-69
2024/01/14 08:50:33;;;;;;;;;;;;;;;3.29;52.82;99944.28;5410288;32;34313;-69
2024/01/14 08:53:35;;;;;;;;;;;;;;;4.37;49.92;99936.19;5406268;32;35363;-69
2024/01/14 08:56:38;;;;;;;;;;;;;;;2.93;53.24;99944.84;5405711;32;34607;-69
2024/01/14 08:59:40;;;;;;;;;;;;;;;3.28;51.58;99937.34;5409455;32;34218;-69
2024/01/14 09:02:42;;;;;;;;;;;;;;;3.63;50.97;99937.63;5404234;32;34416;-69
2024/01/14 09:05:45;;;;;;;;;;;;;;;3.10;52.26;99942.00;5409247;32;34372;-69
2024/01/14 09:08:47;;;;;;;;;;;;;;;3.03;52.62;99953.34;5405279;32;34396;-70
2024/01/14 09:11:49;;;;;;;;;;;;;;;2.95;53.22;99950.00;5394951;32;35561;-70
2024/01/14 09:14:52;;;;;;;;;;;;;;;3.35;52.52;99946.75;5404744;32;34197;-69
2024/01/14 09:17:54;;;;;;;;;;;;;;;3.56;52.22;99938.63;5406031;32;35330;-70
2024/01/14 09:20:56;;;;;;;;;;;;;;;3.45;51.92;99936.19;5406100;32;34465;-69
2024/01/14 09:23:58;;;;;;;;;;;;;;;4.48;49.90;99937.66;5392116;32;34804;-69
2024/01/14 09:27:00;;;;;;;;;;;;;;;2.93;52.50;99946.56;5404898;32;34937;-69
2024/01/14 09:30:03;;;;;;;;;;;;;;;2.86;53.24;99950.16;5393068;32;35468;-69
2024/01/14 09:33:05;;;;;;;;;;;;;;;3.22;52.12;99948.69;5388519;32;34335;-69
2024/01/14 09:36:08;;;;;;;;;;;;;;;2.80;54.18;99950.22;5391626;32;34547;-70
2024/01/14 09:39:12;;;;;;;;;;;;;;;3.86;51.04;99937.19;5392049;32;35905;-70
2024/01/14 09:42:26;;;;;;;;;;;;;;;4.73;48.94;99931.94;5405811;32;34917;-68
2024/01/14 09:45:29;;;;;;;;;;;;;;;3.76;51.83;99925.25;5402302;32;35538;-70
2024/01/14 09:48:39;;;;;;;;;;;;;;;3.88;51.15;99917.22;5389125;32;35468;-69
2024/01/14 09:51:42;;;;;;;;;;;;;;;2.88;53.35;99923.28;5366670;32;34205;-70
2024/01/14 09:54:44;;;;;;;;;;;;;;;3.06;53.46;99929.91;5399381;32;34392;-68
2024/01/14 09:57:47;;;;;;;;;;;;;;;2.83;53.96;99924.22;5398495;32;34436;-70
2024/01/14 10:00:50;;;;;;;;;;;;;;;3.20;53.61;99912.38;5381869;32;34849;-71
2024/01/14 10:04:01;;;;;;;;;;;;;;;2.88;53.95;99912.88;5385447;32;36173;-71
2024/01/14 10:07:29;;;;;;;;;;;;;;;3.34;53.60;99898.28;5398823;32;33475;-69
2024/01/14 10:11:04;;;;;;;;;;;;;;;2.40;55.44;99904.09;5336149;32;36218;-71
2024/01/14 10:14:28;;;;;;;;;;;;;;;3.74;52.68;99898.44;5288771;33;35941;-69
2024/01/14 10:17:52;;;;;;;;;;;;;;;3.10;53.92;99900.44;5247351;33;34643;-69
2024/01/14 10:20:55;;;;;;;;;;;;;;;4.13;50.54;99885.53;5226226;33;841355;-70
2024/01/14 10:23:58;;;;;;;;;;;;;;;3.77;50.44;99868.03;5249910;33;34985;-69
2024/01/14 10:27:00;;;;;;;;;;;;;;;3.35;53.04;99876.63;5241290;33;34269;-69
2024/01/14 10:30:02;;;;;;;;;;;;;;;2.99;53.49;99868.59;5258195;33;34516;-70
2024/01/14 10:33:06;;;;;;;;;;;;;;;3.68;51.92;99859.59;5239083;33;35499;-69
2024/01/14 10:36:26;;;;;;;;;;;;;;;4.23;49.91;99859.28;5259204;33;34103;-70
2024/01/14 10:39:31;;;;;;;;;;;;;;;3.37;52.48;99875.72;5257202;33;35786;-70
2024/01/14 10:42:35;;;;;;;;;;;;;;;3.66;52.04;99866.53;5256445;33;34277;-70
2024/01/14 10:45:37;;;;;;;;;;;;;;;3.14;52.84;99862.28;5264743;33;36088;-69
2024/01/14 10:48:39;;;;;;;;;;;;;;;4.06;51.21;99862.25;5254358;33;34366;-70
2024/01/14 10:51:41;;;;;;;;;;;;;;;4.17;49.88;99842.94;5259967;33;34286;-70
2024/01/14 10:54:54;;;;;;;;;;;;;;;4.20;49.36;99833.34;5254809;33;35971;-70
2024/01/14 10:57:57;;;;;;;;;;;;;;;4.48;49.75;99837.94;5257817;33;34318;-68
2024/01/14 11:00:59;;;;;;;;;;;;;;;5.71;46.45;99833.91;5254491;33;35445;-70
2024/01/14 11:04:02;;;;;;;;;;;;;;;5.62;45.39;99827.22;5253727;33;34362;-69
2024/01/14 11:07:05;;;;;;;;;;;;;;;4.99;47.79;99827.16;5259221;33;35235;-69
2024/01/14 11:10:10;;;;;;;;;;;;;;;5.06;47.36;99820.91;5263056;33;34360;-69
2024/01/14 11:13:21;;;;;;;;;;;;;;;6.84;43.41;99830.53;5312214;33;34709;-70
2024/01/14 11:16:25;;;;;;;;;;;;;;;7.81;41.53;99802.72;5308075;33;35472;-70
2024/01/14 11:19:29;;;;;;;;;;;;;;;7.95;40.95;99812.66;5301889;32;35682;-70
2024/01/14 11:22:38;;;;;;;;;;;;;;;8.00;40.22;99818.59;5352586;32;34521;-71
2024/01/14 11:25:51;;;;;;;;;;;;;;;7.43;41.35;99814.56;5361291;32;35553;-70
2024/01/14 11:28:56;;;;;;;;;;;;;;;7.11;42.00;99818.28;5392070;32;34591;-71
2024/01/14 11:32:08;;;;;;;;;;;;;;;6.91;42.49;99813.75;5389117;32;34347;-70
2024/01/14 11:35:11;;;;;;;;;;;;;;;7.26;42.47;99815.16;5392550;32;34303;-69
2024/01/14 11:38:30;;;;;;;;;;;;;;;6.89;42.75;99812.94;5384148;32;35279;-69
2024/01/14 11:41:35;;;;;;;;;;;;;;;7.43;41.19;99800.66;5386258;32;34358;-70
2024/01/14 11:44:37;;;;;;;;;;;;;;;6.89;42.24;99810.34;5411137;32;34431;-71
2024/01/14 11:47:45;;;;;;;;;;;;;;;7.18;42.23;99809.34;5403478;32;36026;-68
2024/01/14 11:50:50;;;;;;;;;;;;;;;7.66;40.52;99794.56;5394164;32;34420;-70
2024/01/14 11:53:53;;;;;;;;;;;;;;;7.36;40.80;99783.47;5389748;32;36751;-69
2024/01/14 11:56:57;;;;;;;;;;;;;;;7.33;41.38;99774.81;5401974;32;35552;-69
2024/01/14 11:59:59;;;;;;;;;;;;;;;6.49;42.92;99768.97;5389963;32;35077;-70
2024/01/14 12:03:02;;;;;;;;;;;;;;;8.00;40.01;99761.03;5375474;32;34155;-69
2024/01/14 12:06:05;;;;;;;;;;;;;;;7.95;39.05;99747.25;5382065;32;34276;-71
2024/01/14 12:09:08;;;;;;;;;;;;;;;6.40;42.49;99757.09;5397526;32;34390;-70
2024/01/14 12:12:10;;;;;;;;;;;;;;;8.32;39.24;99743.19;5393164;32;34273;-71
2024/01/14 12:15:15;;;;;;;;;;;;;;;9.90;36.44;99730.22;5403824;32;36341;-70
2024/01/14 12:18:17;;;;;;;;;;;;;;;9.32;36.92;99739.88;5402750;32;34413;-70
2024/01/14 12:21:20;;;;;;;;;;;;;;;9.17;36.63;99744.03;5404665;32;35542;-70
2024/01/14 12:24:33;;;;;;;;;;;;;;;10.26;34.77;99730.28;5387171;32;35688;-70
2024/01/14 12:27:37;;;;;;;;;;;;;;;12.31;31.25;99719.56;5392578;32;35319;-69
2024/01/14 12:30:39;;;;;;;;;;;;;;;14.36;28.58;99709.66;5402721;32;35651;-69
2024/01/14 12:33:45;;;;;;;;;;;;;;;9.59;35.09;99733.38;5403365;32;34207;-70
2024/01/14 12:36:47;;;;;;;;;;;;;;;9.82;35.44;99734.13;5389578;32;34295;-70
2024/01/14 12:39:55;;;;;;;;;;;;;;;9.30;36.57;99731.25;5400040;32;35157;-70
2024/01/14 12:42:58;;;;;;;;;;;;;;;9.91;35.38;99723.19;5380651;32;35319;-70
2024/01/14 12:46:02;;;;;;;;;;;;;;;9.97;35.43;99718.50;5376804;32;35448;-71
2024/01/14 12:49:09;;;;;;;;;;;;;;;9.92;35.22;99714.41;5401873;32;34399;-71
2024/01/14 12:52:16;;;;;;;;;;;;;;;8.35;38.27;99720.38;5390729;32;35399;-69
2024/01/14 12:55:19;;;;;;;;;;;;;;;9.75;35.99;99712.56;5404893;32;34559;-70
2024/01/14 12:58:22;;;;;;;;;;;;;;;10.00;35.26;99707.03;5408299;32;34171;-70
2024/01/14 13:01:24;;;;;;;;;;;;;;;11.21;33.82;99696.59;5390912;32;34048;-70
2024/01/14 13:04:28;;;;;;;;;;;;;;;12.38;31.53;99693.69;5402858;32;34232;-70
2024/01/14 13:07:30;;;;;;;;;;;;;;;10.49;34.29;99702.88;5390630;32;34343;-70
2024/01/14 13:10:32;;;;;;;;;;;;;;;9.02;36.78;99716.72;5408925;32;34241;-70
2024/01/14 13:13:37;;;;;;;;;;;;;;;10.48;34.86;99706.44;5404984;32;34362;-68
2024/01/14 13:16:40;;;;;;;;;;;;;;;10.27;34.84;99705.72;5405125;32;35526;-69
2024/01/14 13:19:53;;;;;;;;;;;;;;;9.92;35.56;99703.91;5408280;32;34194;-69
2024/01/14 13:22:56;;;;;;;;;;;;;;;8.79;37.52;99708.97;5400003;32;34349;-69
2024/01/14 13:25:58;;;;;;;;;;;;;;;7.33;40.43;99701.63;5392839;32;35883;-69
2024/01/14 13:29:00;;;;;;;;;;;;;;;6.82;40.99;99717.38;5390754;32;35026;-69
2024/01/14 13:32:02;;;;;;;;;;;;;;;5.96;43.66;99727.16;5406380;32;34397;-69
2024/01/14 13:35:05;;;;;;;;;;;;;;;5.46;44.82;99731.22;5407527;32;34448;-70
2024/01/14 13:38:08;;;;;;;;;;;;;;;5.19;45.61;99728.50;5402696;32;34301;-71
2024/01/14 13:41:10;;;;;;;;;;;;;;;4.88;46.10;99723.25;5410099;32;34234;-70
2024/01/14 13:44:12;;;;;;;;;;;;;;;5.39;45.53;99726.19;5398845;32;34424;-72
2024/01/14 13:47:19;;;;;;;;;;;;;;;5.62;44.75;99730.75;5404063;32;34337;-69
2024/01/14 13:50:21;;;;;;;;;;;;;;;5.86;44.73;99734.37;5390597;32;36644;-69
2024/01/14 13:53:23;;;;;;;;;;;;;;;4.56;47.26;99743.16;5391473;32;35009;-71
2024/01/14 13:56:25;;;;;;;;;;;;;;;5.00;46.32;99738.56;5393842;32;35210;-70
2024/01/14 13:59:28;;;;;;;;;;;;;;;5.60;45.55;99736.88;5404191;32;34745;-70
2024/01/14 14:02:30;;;;;;;;;;;;;;;5.26;46.15;99740.47;5402309;32;35018;-69
2024/01/14 14:05:32;;;;;;;;;;;;;;;5.64;45.47;99738.53;5389438;32;35352;-70
2024/01/14 14:08:35;;;;;;;;;;;;;;;5.60;45.07;99743.00;5408957;32;34164;-71
2024/01/14 14:11:38;;;;;;;;;;;;;;;6.88;43.28;99737.22;5404414;32;35233;-70
2024/01/14 14:14:40;;;;;;;;;;;;;;;8.32;40.84;99724.88;5390078;32;34215;-71
2024/01/14 14:17:42;;;;;;;;;;;;;;;8.45;38.98;99722.66;5395919;32;34946;-70
2024/01/14 14:20:49;;;;;;;;;;;;;;;8.64;38.59;99719.19;5403416;32;36010;-69
2024/01/14 14:23:51;;;;;;;;;;;;;;;7.38;40.30;99711.91;5405641;32;34865;-72
2024/01/14 14:26:54;;;;;;;;;;;;;;;7.91;40.13;99714.25;5403476;32;34787;-71
2024/01/14 14:29:56;;;;;;;;;;;;;;;7.65;40.69;99717.03;5408958;32;35474;-70
2024/01/14 14:32:58;;;;;;;;;;;;;;;7.17;41.59;99717.91;5404053;32;34933;-69
2024/01/14 14:36:00;;;;;;;;;;;;;;;7.46;40.75;99712.47;5402540;32;34793;-69
2024/01/14 14:39:02;;;;;;;;;;;;;;;6.74;42.36;99706.34;5407958;32;35321;-69
2024/01/14 14:42:06;;;;;;;;;;;;;;;6.54;43.23;99714.84;5404681;32;34965;-70
2024/01/14 14:45:09;;;;;;;;;;;;;;;5.42;45.48;99720.91;5408626;32;36236;-69
2024/01/14 14:48:12;;;;;;;;;;;;;;;5.53;45.48;99717.13;5402277;32;34389;-70
2024/01/14 14:51:14;;;;;;;;;;;;;;;5.44;45.73;99713.88;5408400;32;34891;-70
2024/01/14 14:54:34;;;;;;;;;;;;;;;4.97;46.91;99712.63;5405086;32;34551;-71
2024/01/14 14:57:36;;;;;;;;;;;;;;;4.93;47.17;99712.72;5400019;32;34278;-71
2024/01/14 15:00:38;;;;;;;;;;;;;;;4.42;48.69;99718.37;5408805;32;35141;-71
2024/01/14 15:03:40;;;;;;;;;;;;;;;4.79;47.96;99723.50;5403073;32;35110;-72
2024/01/14 15:06:43;;;;;;;;;;;;;;;4.59;48.42;99713.63;5404608;32;34388;-71
2024/01/14 15:09:51;;;;;;;;;;;;;;;5.03;47.64;99715.06;5403741;32;34949;-70
2024/01/14 15:12:55;;;;;;;;;;;;;;;5.07;47.07;99711.44;5391106;32;34375;-71
2024/01/14 15:16:00;;;;;;;;;;;;;;;5.49;46.58;99715.50;5409471;32;34814;-69
2024/01/14 15:19:02;;;;;;;;;;;;;;;5.87;45.31;99696.97;5404881;32;35171;-69
2024/01/14 15:22:05;;;;;;;;;;;;;;;5.63;45.64;99708.12;5390992;32;34111;-71
2024/01/14 15:25:15;;;;;;;;;;;;;;;5.51;46.35;99706.75;5388274;32;34745;-69
2024/01/14 15:28:17;;;;;;;;;;;;;;;5.37;46.67;99699.31;5393797;32;35985;-71
2024/01/14 15:31:19;;;;;;;;;;;;;;;5.56;46.31;99707.47;5404960;32;34375;-70
2024/01/14 15:34:22;;;;;;;;;;;;;;;5.62;45.96;99709.91;5378252;32;34666;-70
2024/01/14 15:37:24;;;;;;;;;;;;;;;5.83;45.40;99711.00;5394602;32;35489;-69
2024/01/14 15:40:28;;;;;;;;;;;;;;;5.67;46.00;99715.84;5405059;32;35581;-69
2024/01/14 15:43:31;;;;;;;;;;;;;;;5.15;47.19;99706.91;5409229;32;34871;-70
2024/01/14 15:46:33;;;;;;;;;;;;;;;5.81;45.77;99704.97;5389540;32;34983;-70
2024/01/14 15:49:35;;;;;;;;;;;;;;;5.90;45.50;99698.63;5407810;32;34389;-70
2024/01/14 15:52:38;;;;;;;;;;;;;;;6.00;45.21;99696.63;5405296;32;35239;-69
2024/01/14 15:55:40;;;;;;;;;;;;;;;5.77;45.73;99692.94;5404103;32;36139;-70
2024/01/14 15:58:42;;;;;;;;;;;;;;;5.71;45.51;99690.50;5393506;32;36019;-70
2024/01/14 16:01:44;;;;;;;;;;;;;;;5.66;45.84;99700.22;5388557;32;34977;-69
2024/01/14 16:04:46;;;;;;;;;;;;;;;5.96;45.27;99690.63;5406117;32;34517;-70
2024/01/14 16:07:49;;;;;;;;;;;;;;;5.55;46.44;99684.06;5388108;32;34614;-69
2024/01/14 16:11:27;;;;;;;;;;;;;;;5.68;46.08;99688.00;5392381;32;35409;-69